createdAt,value
2022-12-28T00:00:16.481Z,86.61
2022-12-28T00:02:46.116Z,86.15
2022-12-28T00:05:17.775Z,87.25
2022-12-28T00:07:47.812Z,86.72
2022-12-28T00:10:17.613Z,86.00
2022-12-28T00:12:49.126Z,86.16
2022-12-28T00:15:18.781Z,86.39
2022-12-28T00:17:48.531Z,86.25
2022-12-28T00:20:18.048Z,87.19
2022-12-28T00:22:47.757Z,86.90
2022-12-28T00:25:17.374Z,86.99
2022-12-28T00:27:47.150Z,86.07
2022-12-28T00:30:16.679Z,86.07
2022-12-28T00:32:46.108Z,86.60
2022-12-28T00:35:15.978Z,86.15
2022-12-28T00:37:45.795Z,85.82
2022-12-28T00:40:22.031Z,85.82
2022-12-28T00:42:46.990Z,85.82
2022-12-28T00:45:16.727Z,86.30
2022-12-28T00:47:46.587Z,85.84
2022-12-28T00:50:16.078Z,85.87
2022-12-28T00:52:45.821Z,86.57
2022-12-28T00:55:15.762Z,86.10
2022-12-28T00:57:45.880Z,85.43
2022-12-28T01:00:16.464Z,85.62
2022-12-28T01:02:46.345Z,85.89
2022-12-28T01:05:15.761Z,86.38
2022-12-28T01:07:45.626Z,85.73
2022-12-28T01:10:15.232Z,85.92
2022-12-28T01:12:45.061Z,86.00
2022-12-28T01:15:15.734Z,86.09
2022-12-28T01:17:45.471Z,85.85
2022-12-28T01:20:15.058Z,85.66
2022-12-28T01:22:44.772Z,86.03
2022-12-28T01:25:15.874Z,85.79
2022-12-28T01:27:45.622Z,85.74
2022-12-28T01:30:15.951Z,86.12
2022-12-28T01:32:45.839Z,85.58
2022-12-28T01:35:15.641Z,86.21
2022-12-28T01:37:45.766Z,85.40
2022-12-28T01:40:16.376Z,85.86
2022-12-28T01:42:46.168Z,86.15
2022-12-28T01:45:18.853Z,85.48
2022-12-28T01:47:51.718Z,85.29
2022-12-28T01:50:24.197Z,85.77
2022-12-28T01:52:59.965Z,85.11
2022-12-28T01:55:32.318Z,85.37
2022-12-28T01:58:05.098Z,85.25
2022-12-28T02:00:36.470Z,84.64
2022-12-28T02:03:12.499Z,85.63
2022-12-28T02:05:45.497Z,84.63
2022-12-28T02:08:21.116Z,84.30
2022-12-28T02:10:52.830Z,85.15
2022-12-28T02:13:24.599Z,84.31
2022-12-28T02:15:54.347Z,84.92
2022-12-28T02:18:28.302Z,84.83
2022-12-28T02:21:13.067Z,85.69
2022-12-28T02:23:51.769Z,86.27
2022-12-28T02:26:50.849Z,86.34
2022-12-28T02:29:23.593Z,86.19
2022-12-28T02:31:59.690Z,86.10
2022-12-28T02:34:35.167Z,86.34
2022-12-28T02:37:10.173Z,88.33
2022-12-28T02:39:43.251Z,88.27
2022-12-28T02:42:13.812Z,88.56
2022-12-28T02:45:00.876Z,88.85
2022-12-28T02:47:48.539Z,89.46
2022-12-28T02:50:19.479Z,90.11
2022-12-28T02:52:54.947Z,89.92
2022-12-28T02:56:03.278Z,89.94
2022-12-28T02:58:44.743Z,91.55
2022-12-28T03:01:21.080Z,91.55
2022-12-28T03:04:03.473Z,91.68
2022-12-28T03:07:02.792Z,91.75
2022-12-28T03:09:44.121Z,92.09
2022-12-28T03:12:19.534Z,91.98
2022-12-28T03:14:54.426Z,93.02
2022-12-28T03:17:43.944Z,93.44
2022-12-28T03:20:38.243Z,95.02
2022-12-28T03:23:27.894Z,95.14
2022-12-28T03:26:18.874Z,95.14
2022-12-28T03:29:07.843Z,95.72
2022-12-28T03:31:39.668Z,95.54
2022-12-28T03:34:11.773Z,95.05
2022-12-28T03:36:57.573Z,94.89
2022-12-28T03:39:53.112Z,94.72
2022-12-28T03:42:46.859Z,95.21
2022-12-28T03:45:46.688Z,95.74
2022-12-28T03:48:04.593Z,95.74
2022-12-28T03:50:41.475Z,96.54
2022-12-28T03:53:11.799Z,96.75
2022-12-28T03:55:43.254Z,95.49
2022-12-28T03:58:13.414Z,96.51
2022-12-28T04:00:43.955Z,96.97
2022-12-28T04:03:14.005Z,95.00
2022-12-28T04:05:44.796Z,95.93
2022-12-28T04:08:14.756Z,95.99
2022-12-28T04:10:44.597Z,95.11
2022-12-28T04:13:14.589Z,96.34
2022-12-28T04:16:01.993Z,96.34
2022-12-28T04:18:34.269Z,95.47
2022-12-28T04:21:04.085Z,95.46
2022-12-28T04:23:34.254Z,95.09
2022-12-28T04:26:20.538Z,94.59
2022-12-28T04:28:52.074Z,95.40
2022-12-28T04:31:35.326Z,95.45
2022-12-28T04:34:08.187Z,95.15
2022-12-28T04:36:42.922Z,94.54
2022-12-28T04:39:16.875Z,94.57
2022-12-28T04:41:46.702Z,94.01
2022-12-28T04:44:16.204Z,93.83
2022-12-28T04:46:45.992Z,94.61
2022-12-28T04:49:15.790Z,93.83
2022-12-28T04:51:45.506Z,93.83
2022-12-28T04:54:15.523Z,94.10
2022-12-28T04:56:45.569Z,95.00
2022-12-28T04:59:15.680Z,95.32
2022-12-28T05:01:45.579Z,96.05
2022-12-28T05:04:15.199Z,96.17
2022-12-28T05:06:45.002Z,96.08
2022-12-28T05:09:14.845Z,96.98
2022-12-28T05:11:44.569Z,96.98
2022-12-28T05:14:14.736Z,97.23
2022-12-28T05:16:45.328Z,97.23
2022-12-28T05:19:15.345Z,96.67
2022-12-28T05:21:47.496Z,96.92
2022-12-28T05:24:17.103Z,97.35
2022-12-28T05:26:46.999Z,97.30
2022-12-28T05:29:16.740Z,97.19
2022-12-28T05:31:47.141Z,97.55
2022-12-28T05:34:16.876Z,97.49
2022-12-28T05:36:46.687Z,98.20
2022-12-28T05:39:16.460Z,97.71
2022-12-28T05:41:46.520Z,96.42
2022-12-28T05:44:16.206Z,97.53
2022-12-28T05:46:46.143Z,97.53
2022-12-28T05:49:15.920Z,97.41
2022-12-28T05:51:45.654Z,97.84
2022-12-28T05:54:15.178Z,98.44
2022-12-28T05:56:44.906Z,98.45
2022-12-28T05:59:14.622Z,98.80
2022-12-28T06:01:45.613Z,98.80
2022-12-28T06:04:20.261Z,98.85
2022-12-28T06:06:50.726Z,98.50
2022-12-28T06:09:21.035Z,98.50
2022-12-28T06:11:51.751Z,98.77
2022-12-28T06:14:21.572Z,98.61
2022-12-28T06:16:51.629Z,98.59
2022-12-28T06:19:21.149Z,98.88
2022-12-28T06:21:50.877Z,99.38
2022-12-28T06:24:20.690Z,98.95
2022-12-28T06:26:51.300Z,98.65
2022-12-28T06:29:21.053Z,97.49
2022-12-28T06:31:51.387Z,97.76
2022-12-28T06:34:21.124Z,98.00
2022-12-28T06:36:52.701Z,98.00
2022-12-28T06:39:22.425Z,98.52
2022-12-28T06:41:52.149Z,98.80
2022-12-28T06:44:21.878Z,97.85
2022-12-28T06:46:51.911Z,97.84
2022-12-28T06:49:21.664Z,97.66
2022-12-28T06:51:51.419Z,98.12
2022-12-28T06:54:20.923Z,97.26
2022-12-28T06:56:50.681Z,97.63
2022-12-28T06:59:20.167Z,97.72
2022-12-28T07:01:50.074Z,97.15
2022-12-28T07:04:19.904Z,97.76
2022-12-28T07:06:49.660Z,97.80
2022-12-28T07:09:19.733Z,97.35
2022-12-28T07:11:51.348Z,96.44
2022-12-28T07:14:21.031Z,97.02
2022-12-28T07:16:50.798Z,97.38
2022-12-28T07:19:20.550Z,96.20
2022-12-28T07:21:51.204Z,95.42
2022-12-28T07:24:20.888Z,96.65
2022-12-28T07:26:50.662Z,96.01
2022-12-28T07:29:20.177Z,95.79
2022-12-28T07:31:50.221Z,96.27
2022-12-28T07:34:20.007Z,96.67
2022-12-28T07:36:50.224Z,96.41
2022-12-28T07:39:20.036Z,96.56
2022-12-28T07:41:49.797Z,95.15
2022-12-28T07:44:20.899Z,94.75
2022-12-28T07:46:50.679Z,95.30
2022-12-28T07:49:20.415Z,95.08
2022-12-28T07:51:49.847Z,94.52
2022-12-28T07:54:19.586Z,95.14
2022-12-28T07:56:49.705Z,95.13
2022-12-28T07:59:19.166Z,94.82
2022-12-28T08:01:53.341Z,95.08
2022-12-28T08:04:22.827Z,95.06
2022-12-28T08:06:52.555Z,94.20
2022-12-28T08:09:22.726Z,94.19
2022-12-28T08:11:52.451Z,94.92
2022-12-28T08:14:21.918Z,94.92
2022-12-28T08:16:51.740Z,96.00
2022-12-28T08:19:21.481Z,96.00
2022-12-28T08:21:51.271Z,95.15
2022-12-28T08:24:21.231Z,94.17
2022-12-28T08:26:51.380Z,95.12
2022-12-28T08:29:23.250Z,93.96
2022-12-28T08:31:53.012Z,93.96
2022-12-28T08:34:24.917Z,94.15
2022-12-28T08:36:56.582Z,93.84
2022-12-28T08:39:26.594Z,94.57
2022-12-28T08:41:57.246Z,94.86
2022-12-28T08:44:27.058Z,93.97
2022-12-28T08:46:58.107Z,93.55
2022-12-28T08:49:27.997Z,94.70
2022-12-28T08:51:57.805Z,95.19
2022-12-28T08:54:27.551Z,96.08
2022-12-28T08:56:56.970Z,96.27
2022-12-28T08:59:26.769Z,98.58
2022-12-28T09:01:56.837Z,98.83
2022-12-28T09:04:26.494Z,99.04
2022-12-28T09:06:56.308Z,99.51
2022-12-28T09:09:26.065Z,99.56
2022-12-28T09:11:55.781Z,99.66
2022-12-28T09:14:25.592Z,99.35
2022-12-28T09:16:55.759Z,99.28
2022-12-28T09:19:25.761Z,98.21
2022-12-28T09:21:55.545Z,98.37
2022-12-28T09:24:25.368Z,98.24
2022-12-28T09:26:55.425Z,97.68
2022-12-28T09:29:25.187Z,98.30
2022-12-28T09:31:54.651Z,98.46
2022-12-28T09:34:39.898Z,97.39
2022-12-28T09:36:55.858Z,97.07
2022-12-28T09:39:25.446Z,97.11
2022-12-28T09:41:58.291Z,97.55
2022-12-28T09:44:48.943Z,99.16
2022-12-28T09:47:36.893Z,98.18
2022-12-28T09:50:17.161Z,99.34
2022-12-28T09:53:09.347Z,99.91
2022-12-28T09:55:42.348Z,100.00
2022-12-28T09:58:16.077Z,100.00
2022-12-28T10:00:50.891Z,100.00
2022-12-28T10:03:39.977Z,100.00
2022-12-28T10:06:16.606Z,100.00
2022-12-28T10:08:49.384Z,100.00
2022-12-28T10:11:23.501Z,100.00
2022-12-28T10:13:59.225Z,100.00
2022-12-28T10:16:34.842Z,100.00
2022-12-28T10:19:07.003Z,100.00
2022-12-28T10:21:37.177Z,99.84
2022-12-28T10:26:43.364Z,98.86
2022-12-28T10:29:16.136Z,99.68
2022-12-28T10:31:47.471Z,98.94
2022-12-28T10:34:22.811Z,98.98
2022-12-28T10:36:53.579Z,97.52
2022-12-28T10:39:31.941Z,99.04
2022-12-28T10:42:02.958Z,98.82
2022-12-28T10:44:39.734Z,99.16
2022-12-28T10:47:14.352Z,99.37
2022-12-28T10:52:23.904Z,99.35
2022-12-28T10:55:07.867Z,98.11
2022-12-28T10:57:31.575Z,98.76
2022-12-28T11:00:21.514Z,99.03
2022-12-28T11:02:51.468Z,99.03
2022-12-28T11:05:24.368Z,99.45
2022-12-28T11:08:07.471Z,99.54
2022-12-28T11:10:37.544Z,100.00
2022-12-28T11:13:10.667Z,100.00
2022-12-28T11:15:41.073Z,100.00
2022-12-28T11:18:19.338Z,100.00
2022-12-28T11:20:51.590Z,100.00
2022-12-28T11:23:24.439Z,100.00
2022-12-28T11:25:54.538Z,100.00
2022-12-28T11:28:24.920Z,100.00
2022-12-28T11:30:54.991Z,99.83
2022-12-28T11:33:46.046Z,98.79
2022-12-28T11:36:24.596Z,98.86
2022-12-28T11:38:56.312Z,99.33
2022-12-28T11:41:33.851Z,98.84
2022-12-28T11:44:04.896Z,98.96
2022-12-28T11:46:39.796Z,98.64
2022-12-28T11:49:27.590Z,99.73
2022-12-28T11:52:30.394Z,98.93
2022-12-28T11:55:02.724Z,98.90
2022-12-28T11:57:44.183Z,97.95
2022-12-28T12:00:25.875Z,97.95
2022-12-28T12:03:00.662Z,98.46
2022-12-28T12:05:41.955Z,99.12
2022-12-28T12:08:17.570Z,98.44
2022-12-28T12:10:48.648Z,98.24
2022-12-28T12:13:30.734Z,97.99
2022-12-28T12:16:05.201Z,97.59
2022-12-28T12:18:38.009Z,96.92
2022-12-28T12:21:15.559Z,96.78
2022-12-28T12:23:52.829Z,96.56
2022-12-28T12:26:34.104Z,97.17
2022-12-28T12:29:09.695Z,96.99
2022-12-28T12:31:42.491Z,97.19
2022-12-28T12:34:19.958Z,97.06
2022-12-28T12:37:17.561Z,96.71
2022-12-28T12:39:53.330Z,95.91
2022-12-28T12:42:38.051Z,95.94
2022-12-28T12:45:30.675Z,95.06
2022-12-28T12:51:34.648Z,95.35
2022-12-28T12:54:25.974Z,94.67
2022-12-28T12:57:10.275Z,95.31
2022-12-28T13:00:00.927Z,94.96
2022-12-28T13:02:33.804Z,94.93
2022-12-28T13:05:05.438Z,94.54
2022-12-28T13:07:35.817Z,94.14
2022-12-28T13:10:10.836Z,93.98
2022-12-28T13:12:42.553Z,93.98
2022-12-28T13:15:19.601Z,93.75
2022-12-28T13:20:39.217Z,93.05
2022-12-28T13:23:12.030Z,92.26
2022-12-28T13:25:44.919Z,91.62
2022-12-28T13:28:23.614Z,92.04
2022-12-28T13:30:58.636Z,92.70
2022-12-28T13:33:30.155Z,92.18
2022-12-28T13:36:14.899Z,91.27
2022-12-28T13:38:46.549Z,90.97
2022-12-28T13:41:27.413Z,90.93
2022-12-28T13:44:14.772Z,90.23
2022-12-28T13:46:46.837Z,90.73
2022-12-28T13:49:18.110Z,90.82
2022-12-28T13:51:53.531Z,90.25
2022-12-28T13:54:23.928Z,90.73
2022-12-28T13:57:14.757Z,89.64
2022-12-28T13:59:29.120Z,89.32
2022-12-28T14:01:59.297Z,89.69
2022-12-28T14:07:01.620Z,88.60
2022-12-28T14:09:31.525Z,89.25
2022-12-28T14:12:01.027Z,88.47
2022-12-28T14:14:30.968Z,88.97
2022-12-28T14:17:03.514Z,88.05
2022-12-28T14:19:34.296Z,87.53
2022-12-28T14:22:07.886Z,88.04
2022-12-28T14:24:35.688Z,87.61
2022-12-28T14:27:05.522Z,87.42
2022-12-28T14:29:36.371Z,87.41
2022-12-28T14:32:10.882Z,86.32
2022-12-28T14:34:40.791Z,85.85
2022-12-28T14:37:22.478Z,86.11
2022-12-28T14:39:52.230Z,85.69
2022-12-28T14:42:27.154Z,85.69
2022-12-28T14:44:58.993Z,84.96
2022-12-28T14:47:45.721Z,85.34
2022-12-28T14:50:21.274Z,84.75
2022-12-28T14:52:53.343Z,84.61
2022-12-28T14:55:28.920Z,84.63
2022-12-28T14:58:01.737Z,84.63
2022-12-28T15:00:37.041Z,84.06
2022-12-28T15:03:22.260Z,84.33
2022-12-28T15:05:54.499Z,83.88
2022-12-28T15:08:24.309Z,83.68
2022-12-28T15:10:56.950Z,84.11
2022-12-28T15:13:27.695Z,83.51
2022-12-28T15:16:04.122Z,82.81
2022-12-28T15:18:34.107Z,82.24
2022-12-28T15:21:07.057Z,82.24
2022-12-28T15:23:36.890Z,83.05
2022-12-28T15:26:12.497Z,82.19
2022-12-28T15:28:42.594Z,82.61
2022-12-28T15:31:19.868Z,82.22
2022-12-28T15:33:50.242Z,82.00
2022-12-28T15:36:21.966Z,81.95
2022-12-28T15:38:51.711Z,81.98
2022-12-28T15:41:39.128Z,81.00
2022-12-28T15:44:11.351Z,81.00
2022-12-28T15:46:41.181Z,81.12
2022-12-28T15:49:14.483Z,81.12
2022-12-28T15:51:46.003Z,81.13
2022-12-28T15:54:18.734Z,81.32
2022-12-28T15:56:55.661Z,81.70
2022-12-28T15:59:28.954Z,81.70
2022-12-28T16:01:59.224Z,81.25
2022-12-28T16:04:28.957Z,81.57
2022-12-28T16:06:58.846Z,83.01
2022-12-28T16:09:28.947Z,83.01
2022-12-28T16:11:58.742Z,82.26
2022-12-28T16:14:28.531Z,83.49
2022-12-28T16:16:58.384Z,83.56
2022-12-28T16:19:28.235Z,83.72
2022-12-28T16:21:58.053Z,84.00
2022-12-28T16:24:29.091Z,84.30
2022-12-28T16:27:00.603Z,84.92
2022-12-28T16:29:30.344Z,85.40
2022-12-28T16:32:01.439Z,84.85
2022-12-28T16:34:32.027Z,85.55
2022-12-28T16:37:01.859Z,86.01
2022-12-28T16:39:31.876Z,86.09
2022-12-28T16:42:01.604Z,86.09
2022-12-28T16:44:31.112Z,86.35
2022-12-28T16:47:01.264Z,87.35
2022-12-28T16:49:31.304Z,87.10
2022-12-28T16:52:01.034Z,87.45
2022-12-28T16:54:30.461Z,88.16
2022-12-28T16:57:00.287Z,87.72
2022-12-28T16:59:30.542Z,89.19
2022-12-28T17:02:01.407Z,89.19
2022-12-28T17:04:31.328Z,89.27
2022-12-28T17:07:01.087Z,89.94
2022-12-28T17:09:31.197Z,89.86
2022-12-28T17:12:01.032Z,90.16
2022-12-28T17:14:38.464Z,90.64
2022-12-28T17:17:02.828Z,90.77
2022-12-28T17:19:32.672Z,90.98
2022-12-28T17:22:02.682Z,91.28
2022-12-28T17:24:32.908Z,91.85
2022-12-28T17:27:08.158Z,92.13
2022-12-28T17:29:34.502Z,92.66
2022-12-28T17:32:05.329Z,92.08
2022-12-28T17:34:35.163Z,91.92
2022-12-28T17:37:05.458Z,92.06
2022-12-28T17:39:40.335Z,92.40
2022-12-28T17:42:09.190Z,92.25
2022-12-28T17:44:39.391Z,92.38
2022-12-28T17:47:10.009Z,92.01
2022-12-28T17:49:39.763Z,92.74
2022-12-28T17:52:11.313Z,92.49
2022-12-28T17:54:41.105Z,93.46
2022-12-28T17:57:10.865Z,93.40
2022-12-28T17:59:40.594Z,93.40
2022-12-28T18:02:13.888Z,93.98
2022-12-28T18:04:43.983Z,93.18
2022-12-28T18:07:13.575Z,93.18
2022-12-28T18:09:43.277Z,93.09
2022-12-28T18:12:14.069Z,94.04
2022-12-28T18:14:43.901Z,93.98
2022-12-28T18:17:13.727Z,93.10
2022-12-28T18:19:43.509Z,92.63
2022-12-28T18:22:15.323Z,93.77
2022-12-28T18:24:45.050Z,93.92
2022-12-28T18:27:14.770Z,94.34
2022-12-28T18:29:45.670Z,93.31
2022-12-28T18:32:15.202Z,93.34
2022-12-28T18:34:45.282Z,94.40
2022-12-28T18:37:15.384Z,94.36
2022-12-28T18:39:45.139Z,93.88
2022-12-28T18:42:18.236Z,93.88
2022-12-28T18:44:48.363Z,94.63
2022-12-28T18:47:18.301Z,95.32
2022-12-28T18:49:48.211Z,95.18
2022-12-28T18:52:18.482Z,96.26
2022-12-28T18:54:48.206Z,96.14
2022-12-28T18:57:17.922Z,95.91
2022-12-28T18:59:47.643Z,96.79
2022-12-28T19:02:19.797Z,97.15
2022-12-28T19:04:50.387Z,98.32
2022-12-28T19:07:20.694Z,98.32
2022-12-28T19:10:12.600Z,97.35
2022-12-28T19:12:40.696Z,98.53
2022-12-28T19:15:10.898Z,98.15
2022-12-28T19:17:40.816Z,97.38
2022-12-28T19:20:12.751Z,98.76
2022-12-28T19:22:44.939Z,98.45
2022-12-28T19:25:14.387Z,99.00
2022-12-28T19:27:44.405Z,98.69
2022-12-28T19:30:15.914Z,97.39
2022-12-28T19:32:45.729Z,98.69
2022-12-28T19:35:15.833Z,98.21
2022-12-28T19:37:45.586Z,97.69
2022-12-28T19:40:15.655Z,97.46
2022-12-28T19:42:45.436Z,98.03
2022-12-28T19:45:14.939Z,98.26
2022-12-28T19:47:44.418Z,97.39
2022-12-28T19:50:17.127Z,98.33
2022-12-28T19:52:46.925Z,98.16
2022-12-28T19:55:16.649Z,98.51
2022-12-28T19:57:46.401Z,98.23
2022-12-28T20:00:16.824Z,98.23
2022-12-28T20:02:46.751Z,98.52
2022-12-28T20:05:16.275Z,98.07
2022-12-28T20:07:46.051Z,98.76
2022-12-28T20:10:15.533Z,98.79
2022-12-28T20:12:45.593Z,98.54
2022-12-28T20:15:15.386Z,97.94
2022-12-28T20:17:47.270Z,97.86
2022-12-28T20:20:19.553Z,98.42
2022-12-28T20:22:48.828Z,97.97
2022-12-28T20:25:18.554Z,97.79
2022-12-28T20:27:48.582Z,97.34
2022-12-28T20:30:18.115Z,97.55
2022-12-28T20:32:48.149Z,97.64
2022-12-28T20:35:17.697Z,97.43
2022-12-28T20:37:47.735Z,96.66
2022-12-28T20:40:17.743Z,96.87
2022-12-28T20:43:05.173Z,97.66
2022-12-28T20:45:35.632Z,96.17
2022-12-28T20:48:05.591Z,96.70
2022-12-28T20:50:35.392Z,97.22
2022-12-28T20:53:05.214Z,96.37
2022-12-28T20:55:34.963Z,96.73
2022-12-28T20:58:04.988Z,95.92
2022-12-28T21:00:34.903Z,95.33
2022-12-28T21:03:04.648Z,94.73
2022-12-28T21:05:34.724Z,95.27
2022-12-28T21:08:04.663Z,94.95
2022-12-28T21:10:34.213Z,94.91
2022-12-28T21:13:03.710Z,95.08
2022-12-28T21:15:33.795Z,95.52
2022-12-28T21:18:03.973Z,95.43
2022-12-28T21:20:38.754Z,95.48
2022-12-28T21:23:05.145Z,94.66
2022-12-28T21:25:35.072Z,93.62
2022-12-28T21:28:05.172Z,93.78
2022-12-28T21:30:35.455Z,94.58
2022-12-28T21:33:05.745Z,93.48
2022-12-28T21:35:35.480Z,93.14
2022-12-28T21:38:06.288Z,93.14
2022-12-28T21:40:36.049Z,93.85
2022-12-28T21:43:05.806Z,92.35
2022-12-28T21:45:35.661Z,92.35
2022-12-28T21:48:05.960Z,92.28
2022-12-28T21:50:36.013Z,92.85
2022-12-28T21:53:05.841Z,93.02
2022-12-28T21:55:45.394Z,92.36
2022-12-28T21:58:16.501Z,92.01
2022-12-28T22:01:04.063Z,92.24
2022-12-28T22:03:51.453Z,92.14
2022-12-28T22:06:21.201Z,92.88
2022-12-28T22:09:08.767Z,92.30
2022-12-28T22:11:56.162Z,92.19
2022-12-28T22:14:25.882Z,92.04
2022-12-28T22:16:55.831Z,91.93
2022-12-28T22:19:25.786Z,91.74
2022-12-28T22:21:55.596Z,92.25
2022-12-28T22:24:25.436Z,91.90
2022-12-28T22:26:55.153Z,91.52
2022-12-28T22:29:25.458Z,91.26
2022-12-28T22:31:55.271Z,91.56
2022-12-28T22:34:25.316Z,91.13
2022-12-28T22:36:55.064Z,90.56
2022-12-28T22:39:25.290Z,90.65
2022-12-28T22:41:55.007Z,91.07
2022-12-28T22:44:25.103Z,90.62
2022-12-28T22:46:55.093Z,91.19
2022-12-28T22:49:25.145Z,90.22
2022-12-28T22:51:54.956Z,89.62
2022-12-28T22:54:24.714Z,89.82
2022-12-28T22:56:54.480Z,90.04
2022-12-28T22:59:24.283Z,89.68
2022-12-28T23:01:56.656Z,89.98
2022-12-28T23:04:26.419Z,90.03
2022-12-28T23:07:01.663Z,90.25
2022-12-28T23:09:27.984Z,89.79
2022-12-28T23:11:58.043Z,90.02
2022-12-28T23:14:45.487Z,89.11
2022-12-28T23:17:16.864Z,88.78
2022-12-28T23:20:05.022Z,89.28
2022-12-28T23:22:52.586Z,89.54
2022-12-28T23:25:42.049Z,88.52
2022-12-28T23:28:15.570Z,89.54
2022-12-28T23:30:48.486Z,89.75
2022-12-28T23:33:20.015Z,89.29
2022-12-28T23:35:49.769Z,88.86
2022-12-28T23:38:19.696Z,89.07
2022-12-28T23:40:51.068Z,89.04
2022-12-28T23:43:20.528Z,88.67
2022-12-28T23:45:50.725Z,88.92
2022-12-28T23:48:20.543Z,88.72
2022-12-28T23:50:50.266Z,89.21
2022-12-28T23:53:22.980Z,88.19
2022-12-28T23:55:52.725Z,88.60
2022-12-28T23:58:22.154Z,89.04
